sensor_id;sensor_type;location;lat;lon;timestamp;P1;durP1;ratioP1;P2;durP2;ratioP2
22675;SDS011;12521;43.310;21.876;2023-09-07T00:01:46;6.0;;;6.0;;
22675;SDS011;12521;43.310;21.876;2023-09-07T00:06:23;6.0;;;5.0;;
22675;SDS011;12521;43.310;21.876;2023-09-07T00:11:04;6.0;;;5.0;;
22675;SDS011;12521;43.310;21.876;2023-09-07T00:15:41;6.0;;;5.0;;
22675;SDS011;12521;43.310;21.876;2023-09-07T00:20:18;6.0;;;5.0;;
22675;SDS011;12521;43.310;21.876;2023-09-07T00:24:54;6.0;;;5.0;;
22675;SDS011;12521;43.310;21.876;2023-09-07T00:29:30;6.0;;;5.0;;
22675;SDS011;12521;43.310;21.876;2023-09-07T00:34:06;6.0;;;5.0;;
22675;SDS011;12521;43.310;21.876;2023-09-07T00:38:42;6.0;;;5.0;;
22675;SDS011;12521;43.310;21.876;2023-09-07T00:43:19;6.0;;;5.0;;
22675;SDS011;12521;43.310;21.876;2023-09-07T00:47:55;6.0;;;5.0;;
22675;SDS011;12521;43.310;21.876;2023-09-07T00:52:32;6.0;;;5.0;;
22675;SDS011;12521;43.310;21.876;2023-09-07T00:57:10;7.0;;;6.0;;
22675;SDS011;12521;43.310;21.876;2023-09-07T01:01:47;7.0;;;6.0;;
22675;SDS011;12521;43.310;21.876;2023-09-07T01:06:39;8.0;;;6.0;;
22675;SDS011;12521;43.310;21.876;2023-09-07T01:11:38;8.0;;;6.0;;
22675;SDS011;12521;43.310;21.876;2023-09-07T01:16:16;8.0;;;6.0;;
22675;SDS011;12521;43.310;21.876;2023-09-07T01:20:58;8.0;;;6.0;;
22675;SDS011;12521;43.310;21.876;2023-09-07T01:25:43;8.0;;;6.0;;
22675;SDS011;12521;43.310;21.876;2023-09-07T01:30:23;8.0;;;7.0;;
22675;SDS011;12521;43.310;21.876;2023-09-07T01:35:11;8.0;;;7.0;;
22675;SDS011;12521;43.310;21.876;2023-09-07T01:39:52;8.0;;;7.0;;
22675;SDS011;12521;43.310;21.876;2023-09-07T01:44:28;8.0;;;7.0;;
22675;SDS011;12521;43.310;21.876;2023-09-07T01:49:05;7.0;;;7.0;;
22675;SDS011;12521;43.310;21.876;2023-09-07T01:53:41;7.0;;;7.0;;
22675;SDS011;12521;43.310;21.876;2023-09-07T01:58:17;8.0;;;6.0;;
22675;SDS011;12521;43.310;21.876;2023-09-07T02:02:54;8.0;;;6.0;;
22675;SDS011;12521;43.310;21.876;2023-09-07T02:07:30;8.0;;;6.0;;
22675;SDS011;12521;43.310;21.876;2023-09-07T02:12:07;8.0;;;6.0;;
22675;SDS011;12521;43.310;21.876;2023-09-07T02:16:43;8.0;;;6.0;;
22675;SDS011;12521;43.310;21.876;2023-09-07T02:21:20;8.0;;;6.0;;
22675;SDS011;12521;43.310;21.876;2023-09-07T02:25:57;8.0;;;6.0;;
22675;SDS011;12521;43.310;21.876;2023-09-07T02:30:34;7.0;;;6.0;;
22675;SDS011;12521;43.310;21.876;2023-09-07T02:35:11;7.0;;;6.0;;
22675;SDS011;12521;43.310;21.876;2023-09-07T02:39:47;7.0;;;6.0;;
22675;SDS011;12521;43.310;21.876;2023-09-07T02:44:24;7.0;;;6.0;;
22675;SDS011;12521;43.310;21.876;2023-09-07T02:49:00;7.0;;;6.0;;
22675;SDS011;12521;43.310;21.876;2023-09-07T02:53:37;7.0;;;6.0;;
22675;SDS011;12521;43.310;21.876;2023-09-07T02:58:13;6.0;;;6.0;;
22675;SDS011;12521;43.310;21.876;2023-09-07T03:02:50;6.0;;;6.0;;
22675;SDS011;12521;43.310;21.876;2023-09-07T03:07:33;6.0;;;5.0;;
22675;SDS011;12521;43.310;21.876;2023-09-07T03:12:10;6.0;;;5.0;;
22675;SDS011;12521;43.310;21.876;2023-09-07T03:16:46;6.0;;;5.0;;
22675;SDS011;12521;43.310;21.876;2023-09-07T03:21:23;6.0;;;5.0;;
22675;SDS011;12521;43.310;21.876;2023-09-07T03:26:00;6.0;;;5.0;;
22675;SDS011;12521;43.310;21.876;2023-09-07T03:30:38;7.0;;;5.0;;
22675;SDS011;12521;43.310;21.876;2023-09-07T03:35:14;7.0;;;5.0;;
22675;SDS011;12521;43.310;21.876;2023-09-07T03:39:51;7.0;;;6.0;;
22675;SDS011;12521;43.310;21.876;2023-09-07T03:44:28;7.0;;;6.0;;
22675;SDS011;12521;43.310;21.876;2023-09-07T03:49:04;7.0;;;6.0;;
22675;SDS011;12521;43.310;21.876;2023-09-07T03:53:41;7.0;;;6.0;;
22675;SDS011;12521;43.310;21.876;2023-09-07T03:58:18;7.0;;;6.0;;
22675;SDS011;12521;43.310;21.876;2023-09-07T04:02:56;7.0;;;6.0;;
22675;SDS011;12521;43.310;21.876;2023-09-07T04:07:33;7.0;;;6.0;;
22675;SDS011;12521;43.310;21.876;2023-09-07T04:12:10;7.0;;;6.0;;
22675;SDS011;12521;43.310;21.876;2023-09-07T04:16:48;7.0;;;6.0;;
22675;SDS011;12521;43.310;21.876;2023-09-07T04:21:25;7.0;;;6.0;;
22675;SDS011;12521;43.310;21.876;2023-09-07T04:26:08;7.0;;;6.0;;
22675;SDS011;12521;43.310;21.876;2023-09-07T04:30:47;7.0;;;5.0;;
22675;SDS011;12521;43.310;21.876;2023-09-07T04:35:29;7.0;;;5.0;;
22675;SDS011;12521;43.310;21.876;2023-09-07T04:40:08;6.0;;;4.0;;
22675;SDS011;12521;43.310;21.876;2023-09-07T04:44:47;6.0;;;4.0;;
22675;SDS011;12521;43.310;21.876;2023-09-07T04:49:24;5.0;;;4.0;;
22675;SDS011;12521;43.310;21.876;2023-09-07T04:54:00;5.0;;;4.0;;
22675;SDS011;12521;43.310;21.876;2023-09-07T04:58:37;6.0;;;4.0;;
22675;SDS011;12521;43.310;21.876;2023-09-07T05:03:14;6.0;;;4.0;;
22675;SDS011;12521;43.310;21.876;2023-09-07T05:07:51;6.0;;;5.0;;
22675;SDS011;12521;43.310;21.876;2023-09-07T05:12:28;6.0;;;5.0;;
22675;SDS011;12521;43.310;21.876;2023-09-07T05:17:04;5.0;;;4.0;;
22675;SDS011;12521;43.310;21.876;2023-09-07T05:21:41;5.0;;;4.0;;
22675;SDS011;12521;43.310;21.876;2023-09-07T05:26:22;5.0;;;4.0;;
22675;SDS011;12521;43.310;21.876;2023-09-07T05:30:59;4.0;;;4.0;;
22675;SDS011;12521;43.310;21.876;2023-09-07T05:35:36;4.0;;;4.0;;
22675;SDS011;12521;43.310;21.876;2023-09-07T05:40:13;4.0;;;4.0;;
22675;SDS011;12521;43.310;21.876;2023-09-07T05:44:49;4.0;;;4.0;;
22675;SDS011;12521;43.310;21.876;2023-09-07T05:49:26;5.0;;;5.0;;
22675;SDS011;12521;43.310;21.876;2023-09-07T05:54:02;5.0;;;5.0;;
22675;SDS011;12521;43.310;21.876;2023-09-07T05:58:39;5.0;;;4.0;;
22675;SDS011;12521;43.310;21.876;2023-09-07T06:03:15;5.0;;;4.0;;
22675;SDS011;12521;43.310;21.876;2023-09-07T06:07:52;5.0;;;4.0;;
22675;SDS011;12521;43.310;21.876;2023-09-07T06:12:28;5.0;;;4.0;;
22675;SDS011;12521;43.310;21.876;2023-09-07T06:17:05;5.0;;;4.0;;
22675;SDS011;12521;43.310;21.876;2023-09-07T06:21:42;5.0;;;4.0;;
22675;SDS011;12521;43.310;21.876;2023-09-07T06:26:19;5.0;;;4.0;;
22675;SDS011;12521;43.310;21.876;2023-09-07T06:30:55;5.0;;;4.0;;
22675;SDS011;12521;43.310;21.876;2023-09-07T06:35:33;5.0;;;4.0;;
22675;SDS011;12521;43.310;21.876;2023-09-07T06:40:11;5.0;;;4.0;;
22675;SDS011;12521;43.310;21.876;2023-09-07T06:44:48;5.0;;;4.0;;
22675;SDS011;12521;43.310;21.876;2023-09-07T06:49:25;5.0;;;3.0;;
22675;SDS011;12521;43.310;21.876;2023-09-07T06:54:02;5.0;;;3.0;;
22675;SDS011;12521;43.310;21.876;2023-09-07T06:58:39;6.0;;;4.0;;
22675;SDS011;12521;43.310;21.876;2023-09-07T07:03:16;6.0;;;4.0;;
22675;SDS011;12521;43.310;21.876;2023-09-07T07:07:52;6.0;;;5.0;;
22675;SDS011;12521;43.310;21.876;2023-09-07T07:12:29;6.0;;;5.0;;
22675;SDS011;12521;43.310;21.876;2023-09-07T07:17:05;6.0;;;4.0;;
22675;SDS011;12521;43.310;21.876;2023-09-07T07:21:42;6.0;;;4.0;;
22675;SDS011;12521;43.310;21.876;2023-09-07T07:26:18;6.0;;;4.0;;
22675;SDS011;12521;43.310;21.876;2023-09-07T07:30:55;6.0;;;4.0;;
22675;SDS011;12521;43.310;21.876;2023-09-07T07:35:34;6.0;;;4.0;;
22675;SDS011;12521;43.310;21.876;2023-09-07T07:40:12;6.0;;;4.0;;
22675;SDS011;12521;43.310;21.876;2023-09-07T07:44:48;6.0;;;4.0;;
22675;SDS011;12521;43.310;21.876;2023-09-07T07:49:25;5.0;;;4.0;;
22675;SDS011;12521;43.310;21.876;2023-09-07T07:54:01;5.0;;;4.0;;
22675;SDS011;12521;43.310;21.876;2023-09-07T07:58:38;6.0;;;4.0;;
22675;SDS011;12521;43.310;21.876;2023-09-07T08:03:15;6.0;;;4.0;;
22675;SDS011;12521;43.310;21.876;2023-09-07T08:07:51;8.0;;;5.0;;
22675;SDS011;12521;43.310;21.876;2023-09-07T08:12:28;8.0;;;5.0;;
22675;SDS011;12521;43.310;21.876;2023-09-07T08:17:04;7.0;;;5.0;;
22675;SDS011;12521;43.310;21.876;2023-09-07T08:21:41;7.0;;;5.0;;
22675;SDS011;12521;43.310;21.876;2023-09-07T08:26:18;7.0;;;5.0;;
22675;SDS011;12521;43.310;21.876;2023-09-07T08:30:54;6.0;;;5.0;;
22675;SDS011;12521;43.310;21.876;2023-09-07T08:35:31;6.0;;;5.0;;
22675;SDS011;12521;43.310;21.876;2023-09-07T08:40:10;6.0;;;4.0;;
22675;SDS011;12521;43.310;21.876;2023-09-07T08:44:54;6.0;;;4.0;;
22675;SDS011;12521;43.310;21.876;2023-09-07T08:49:36;6.0;;;4.0;;
22675;SDS011;12521;43.310;21.876;2023-09-07T08:54:13;6.0;;;4.0;;
22675;SDS011;12521;43.310;21.876;2023-09-07T08:58:50;6.0;;;4.0;;
22675;SDS011;12521;43.310;21.876;2023-09-07T09:03:27;6.0;;;4.0;;
22675;SDS011;12521;43.310;21.876;2023-09-07T09:08:06;5.0;;;4.0;;
22675;SDS011;12521;43.310;21.876;2023-09-07T09:12:46;5.0;;;4.0;;
22675;SDS011;12521;43.310;21.876;2023-09-07T09:17:25;8.0;;;4.0;;
22675;SDS011;12521;43.310;21.876;2023-09-07T09:22:02;8.0;;;4.0;;
22675;SDS011;12521;43.310;21.876;2023-09-07T09:26:40;8.0;;;4.0;;
22675;SDS011;12521;43.310;21.876;2023-09-07T09:31:18;12.0;;;5.0;;
22675;SDS011;12521;43.310;21.876;2023-09-07T09:35:58;12.0;;;5.0;;
22675;SDS011;12521;43.310;21.876;2023-09-07T09:40:36;10.0;;;5.0;;
22675;SDS011;12521;43.310;21.876;2023-09-07T09:45:13;10.0;;;5.0;;
22675;SDS011;12521;43.310;21.876;2023-09-07T09:49:52;7.0;;;5.0;;
22675;SDS011;12521;43.310;21.876;2023-09-07T09:54:35;7.0;;;5.0;;
22675;SDS011;12521;43.310;21.876;2023-09-07T09:59:15;8.0;;;5.0;;
22675;SDS011;12521;43.310;21.876;2023-09-07T10:03:57;8.0;;;5.0;;
22675;SDS011;12521;43.310;21.876;2023-09-07T10:08:36;8.0;;;5.0;;
22675;SDS011;12521;43.310;21.876;2023-09-07T10:13:28;8.0;;;5.0;;
22675;SDS011;12521;43.310;21.876;2023-09-07T10:18:14;7.0;;;4.0;;
22675;SDS011;12521;43.310;21.876;2023-09-07T10:23:04;7.0;;;4.0;;
22675;SDS011;12521;43.310;21.876;2023-09-07T10:27:41;6.0;;;4.0;;
22675;SDS011;12521;43.310;21.876;2023-09-07T10:32:18;6.0;;;4.0;;
22675;SDS011;12521;43.310;21.876;2023-09-07T10:36:56;6.0;;;4.0;;
22675;SDS011;12521;43.310;21.876;2023-09-07T10:41:44;6.0;;;4.0;;
22675;SDS011;12521;43.310;21.876;2023-09-07T10:46:24;6.0;;;4.0;;
22675;SDS011;12521;43.310;21.876;2023-09-07T10:51:00;6.0;;;5.0;;
22675;SDS011;12521;43.310;21.876;2023-09-07T10:55:38;6.0;;;5.0;;
22675;SDS011;12521;43.310;21.876;2023-09-07T11:00:16;8.0;;;4.0;;
22675;SDS011;12521;43.310;21.876;2023-09-07T11:04:53;8.0;;;4.0;;
22675;SDS011;12521;43.310;21.876;2023-09-07T11:09:30;9.0;;;4.0;;
22675;SDS011;12521;43.310;21.876;2023-09-07T11:14:07;9.0;;;4.0;;
22675;SDS011;12521;43.310;21.876;2023-09-07T11:18:45;7.0;;;4.0;;
22675;SDS011;12521;43.310;21.876;2023-09-07T11:23:22;7.0;;;4.0;;
22675;SDS011;12521;43.310;21.876;2023-09-07T11:27:58;5.0;;;5.0;;
22675;SDS011;12521;43.310;21.876;2023-09-07T11:32:37;5.0;;;5.0;;
22675;SDS011;12521;43.310;21.876;2023-09-07T11:37:13;6.0;;;5.0;;
22675;SDS011;12521;43.310;21.876;2023-09-07T11:41:50;6.0;;;5.0;;
22675;SDS011;12521;43.310;21.876;2023-09-07T11:46:26;6.0;;;5.0;;
22675;SDS011;12521;43.310;21.876;2023-09-07T11:51:03;7.0;;;5.0;;
22675;SDS011;12521;43.310;21.876;2023-09-07T11:55:40;7.0;;;5.0;;
22675;SDS011;12521;43.310;21.876;2023-09-07T12:00:19;9.0;;;5.0;;
22675;SDS011;12521;43.310;21.876;2023-09-07T12:04:56;9.0;;;5.0;;
22675;SDS011;12521;43.310;21.876;2023-09-07T12:09:33;11.0;;;5.0;;
22675;SDS011;12521;43.310;21.876;2023-09-07T12:14:10;11.0;;;5.0;;
22675;SDS011;12521;43.310;21.876;2023-09-07T12:18:46;8.0;;;4.0;;
22675;SDS011;12521;43.310;21.876;2023-09-07T12:23:23;8.0;;;4.0;;
22675;SDS011;12521;43.310;21.876;2023-09-07T12:28:00;5.0;;;4.0;;
22675;SDS011;12521;43.310;21.876;2023-09-07T12:32:36;5.0;;;4.0;;
22675;SDS011;12521;43.310;21.876;2023-09-07T12:37:12;4.0;;;4.0;;
22675;SDS011;12521;43.310;21.876;2023-09-07T12:41:49;4.0;;;4.0;;
22675;SDS011;12521;43.310;21.876;2023-09-07T12:46:25;4.0;;;4.0;;
22675;SDS011;12521;43.310;21.876;2023-09-07T12:51:02;4.0;;;4.0;;
22675;SDS011;12521;43.310;21.876;2023-09-07T12:55:38;4.0;;;4.0;;
22675;SDS011;12521;43.310;21.876;2023-09-07T13:00:15;4.0;;;4.0;;
22675;SDS011;12521;43.310;21.876;2023-09-07T13:04:55;4.0;;;4.0;;
22675;SDS011;12521;43.310;21.876;2023-09-07T13:09:31;5.0;;;4.0;;
22675;SDS011;12521;43.310;21.876;2023-09-07T13:14:08;5.0;;;4.0;;
22675;SDS011;12521;43.310;21.876;2023-09-07T13:18:44;5.0;;;4.0;;
22675;SDS011;12521;43.310;21.876;2023-09-07T13:23:20;5.0;;;4.0;;
22675;SDS011;12521;43.310;21.876;2023-09-07T13:27:57;5.0;;;4.0;;
22675;SDS011;12521;43.310;21.876;2023-09-07T13:32:33;5.0;;;4.0;;
22675;SDS011;12521;43.310;21.876;2023-09-07T13:37:10;5.0;;;4.0;;
22675;SDS011;12521;43.310;21.876;2023-09-07T13:41:47;5.0;;;4.0;;
22675;SDS011;12521;43.310;21.876;2023-09-07T13:46:23;5.0;;;4.0;;
22675;SDS011;12521;43.310;21.876;2023-09-07T13:50:59;5.0;;;4.0;;
22675;SDS011;12521;43.310;21.876;2023-09-07T13:55:36;5.0;;;4.0;;
22675;SDS011;12521;43.310;21.876;2023-09-07T14:00:14;5.0;;;4.0;;
22675;SDS011;12521;43.310;21.876;2023-09-07T14:04:51;5.0;;;4.0;;
22675;SDS011;12521;43.310;21.876;2023-09-07T14:09:27;5.0;;;4.0;;
22675;SDS011;12521;43.310;21.876;2023-09-07T14:14:04;5.0;;;4.0;;
22675;SDS011;12521;43.310;21.876;2023-09-07T14:18:41;5.0;;;4.0;;
22675;SDS011;12521;43.310;21.876;2023-09-07T14:23:17;5.0;;;4.0;;
22675;SDS011;12521;43.310;21.876;2023-09-07T14:27:55;5.0;;;4.0;;
22675;SDS011;12521;43.310;21.876;2023-09-07T14:32:32;5.0;;;4.0;;
22675;SDS011;12521;43.310;21.876;2023-09-07T14:37:08;5.0;;;4.0;;
22675;SDS011;12521;43.310;21.876;2023-09-07T14:41:46;6.0;;;4.0;;
22675;SDS011;12521;43.310;21.876;2023-09-07T14:46:23;6.0;;;4.0;;
22675;SDS011;12521;43.310;21.876;2023-09-07T14:51:00;6.0;;;5.0;;
22675;SDS011;12521;43.310;21.876;2023-09-07T14:55:37;6.0;;;5.0;;
22675;SDS011;12521;43.310;21.876;2023-09-07T15:00:14;8.0;;;6.0;;
22675;SDS011;12521;43.310;21.876;2023-09-07T15:04:52;8.0;;;6.0;;
22675;SDS011;12521;43.310;21.876;2023-09-07T15:09:28;9.0;;;6.0;;
22675;SDS011;12521;43.310;21.876;2023-09-07T15:14:05;9.0;;;6.0;;
22675;SDS011;12521;43.310;21.876;2023-09-07T15:18:41;9.0;;;6.0;;
22675;SDS011;12521;43.310;21.876;2023-09-07T15:23:17;9.0;;;6.0;;
22675;SDS011;12521;43.310;21.876;2023-09-07T15:27:54;9.0;;;7.0;;
22675;SDS011;12521;43.310;21.876;2023-09-07T15:32:32;9.0;;;7.0;;
22675;SDS011;12521;43.310;21.876;2023-09-07T15:37:08;9.0;;;7.0;;
22675;SDS011;12521;43.310;21.876;2023-09-07T15:41:45;8.0;;;6.0;;
22675;SDS011;12521;43.310;21.876;2023-09-07T15:46:23;8.0;;;6.0;;
22675;SDS011;12521;43.310;21.876;2023-09-07T15:51:00;6.0;;;5.0;;
22675;SDS011;12521;43.310;21.876;2023-09-07T15:55:37;6.0;;;5.0;;
22675;SDS011;12521;43.310;21.876;2023-09-07T16:00:16;6.0;;;5.0;;
22675;SDS011;12521;43.310;21.876;2023-09-07T16:04:52;6.0;;;5.0;;
22675;SDS011;12521;43.310;21.876;2023-09-07T16:09:29;7.0;;;5.0;;
22675;SDS011;12521;43.310;21.876;2023-09-07T16:14:05;7.0;;;5.0;;
22675;SDS011;12521;43.310;21.876;2023-09-07T16:18:42;7.0;;;5.0;;
22675;SDS011;12521;43.310;21.876;2023-09-07T16:23:18;7.0;;;5.0;;
22675;SDS011;12521;43.310;21.876;2023-09-07T16:27:54;7.0;;;5.0;;
22675;SDS011;12521;43.310;21.876;2023-09-07T16:32:31;7.0;;;5.0;;
22675;SDS011;12521;43.310;21.876;2023-09-07T16:37:07;7.0;;;5.0;;
22675;SDS011;12521;43.310;21.876;2023-09-07T16:41:43;8.0;;;5.0;;
22675;SDS011;12521;43.310;21.876;2023-09-07T16:46:19;8.0;;;5.0;;
22675;SDS011;12521;43.310;21.876;2023-09-07T16:50:56;8.0;;;5.0;;
22675;SDS011;12521;43.310;21.876;2023-09-07T16:55:32;8.0;;;5.0;;
22675;SDS011;12521;43.310;21.876;2023-09-07T17:00:11;8.0;;;5.0;;
22675;SDS011;12521;43.310;21.876;2023-09-07T17:04:49;8.0;;;5.0;;
22675;SDS011;12521;43.310;21.876;2023-09-07T17:09:26;7.0;;;5.0;;
22675;SDS011;12521;43.310;21.876;2023-09-07T17:14:02;7.0;;;5.0;;
22675;SDS011;12521;43.310;21.876;2023-09-07T17:18:39;7.0;;;4.0;;
22675;SDS011;12521;43.310;21.876;2023-09-07T17:23:16;7.0;;;4.0;;
22675;SDS011;12521;43.310;21.876;2023-09-07T17:27:53;7.0;;;4.0;;
22675;SDS011;12521;43.310;21.876;2023-09-07T17:32:29;7.0;;;4.0;;
22675;SDS011;12521;43.310;21.876;2023-09-07T17:37:06;7.0;;;4.0;;
22675;SDS011;12521;43.310;21.876;2023-09-07T17:41:43;7.0;;;4.0;;
22675;SDS011;12521;43.310;21.876;2023-09-07T17:46:20;7.0;;;4.0;;
22675;SDS011;12521;43.310;21.876;2023-09-07T17:50:59;7.0;;;4.0;;
22675;SDS011;12521;43.310;21.876;2023-09-07T17:55:35;7.0;;;4.0;;
22675;SDS011;12521;43.310;21.876;2023-09-07T18:00:15;8.0;;;4.0;;
22675;SDS011;12521;43.310;21.876;2023-09-07T18:04:57;8.0;;;4.0;;
22675;SDS011;12521;43.310;21.876;2023-09-07T18:09:33;8.0;;;5.0;;
22675;SDS011;12521;43.310;21.876;2023-09-07T18:14:10;8.0;;;5.0;;
22675;SDS011;12521;43.310;21.876;2023-09-07T18:18:47;7.0;;;4.0;;
22675;SDS011;12521;43.310;21.876;2023-09-07T18:23:24;7.0;;;4.0;;
22675;SDS011;12521;43.310;21.876;2023-09-07T18:28:02;6.0;;;4.0;;
22675;SDS011;12521;43.310;21.876;2023-09-07T18:32:40;6.0;;;4.0;;
22675;SDS011;12521;43.310;21.876;2023-09-07T18:37:17;6.0;;;4.0;;
22675;SDS011;12521;43.310;21.876;2023-09-07T18:41:53;8.0;;;5.0;;
22675;SDS011;12521;43.310;21.876;2023-09-07T18:46:29;8.0;;;5.0;;
22675;SDS011;12521;43.310;21.876;2023-09-07T18:51:07;10.0;;;6.0;;
22675;SDS011;12521;43.310;21.876;2023-09-07T18:55:44;10.0;;;6.0;;
22675;SDS011;12521;43.310;21.876;2023-09-07T19:00:20;10.0;;;6.0;;
22675;SDS011;12521;43.310;21.876;2023-09-07T19:04:57;10.0;;;6.0;;
22675;SDS011;12521;43.310;21.876;2023-09-07T19:09:33;10.0;;;7.0;;
22675;SDS011;12521;43.310;21.876;2023-09-07T19:14:09;10.0;;;7.0;;
22675;SDS011;12521;43.310;21.876;2023-09-07T19:18:45;8.0;;;6.0;;
22675;SDS011;12521;43.310;21.876;2023-09-07T19:23:21;8.0;;;6.0;;
22675;SDS011;12521;43.310;21.876;2023-09-07T19:27:58;6.0;;;4.0;;
22675;SDS011;12521;43.310;21.876;2023-09-07T19:32:35;6.0;;;4.0;;
22675;SDS011;12521;43.310;21.876;2023-09-07T19:37:11;6.0;;;4.0;;
22675;SDS011;12521;43.310;21.876;2023-09-07T19:41:48;9.0;;;7.0;;
22675;SDS011;12521;43.310;21.876;2023-09-07T19:46:25;9.0;;;7.0;;
22675;SDS011;12521;43.310;21.876;2023-09-07T19:51:08;12.0;;;10.0;;
22675;SDS011;12521;43.310;21.876;2023-09-07T19:55:47;12.0;;;10.0;;
22675;SDS011;12521;43.310;21.876;2023-09-07T20:00:24;10.0;;;9.0;;
22675;SDS011;12521;43.310;21.876;2023-09-07T20:05:01;10.0;;;9.0;;
22675;SDS011;12521;43.310;21.876;2023-09-07T20:09:39;9.0;;;8.0;;
22675;SDS011;12521;43.310;21.876;2023-09-07T20:14:18;9.0;;;8.0;;
22675;SDS011;12521;43.310;21.876;2023-09-07T20:18:55;8.0;;;8.0;;
22675;SDS011;12521;43.310;21.876;2023-09-07T20:23:32;8.0;;;8.0;;
22675;SDS011;12521;43.310;21.876;2023-09-07T20:28:08;8.0;;;7.0;;
22675;SDS011;12521;43.310;21.876;2023-09-07T20:32:44;8.0;;;7.0;;
22675;SDS011;12521;43.310;21.876;2023-09-07T20:37:21;8.0;;;7.0;;
22675;SDS011;12521;43.310;21.876;2023-09-07T20:41:58;8.0;;;6.0;;
22675;SDS011;12521;43.310;21.876;2023-09-07T20:46:35;8.0;;;6.0;;
22675;SDS011;12521;43.310;21.876;2023-09-07T20:51:11;7.0;;;6.0;;
22675;SDS011;12521;43.310;21.876;2023-09-07T20:55:48;7.0;;;6.0;;
22675;SDS011;12521;43.310;21.876;2023-09-07T21:00:26;8.0;;;6.0;;
22675;SDS011;12521;43.310;21.876;2023-09-07T21:05:04;8.0;;;6.0;;
22675;SDS011;12521;43.310;21.876;2023-09-07T21:09:43;8.0;;;6.0;;
22675;SDS011;12521;43.310;21.876;2023-09-07T21:14:19;8.0;;;6.0;;
22675;SDS011;12521;43.310;21.876;2023-09-07T21:18:55;7.0;;;5.0;;
22675;SDS011;12521;43.310;21.876;2023-09-07T21:23:32;7.0;;;5.0;;
22675;SDS011;12521;43.310;21.876;2023-09-07T21:28:08;6.0;;;4.0;;
22675;SDS011;12521;43.310;21.876;2023-09-07T21:32:45;6.0;;;4.0;;
22675;SDS011;12521;43.310;21.876;2023-09-07T21:37:22;6.0;;;4.0;;
22675;SDS011;12521;43.310;21.876;2023-09-07T21:41:58;6.0;;;4.0;;
22675;SDS011;12521;43.310;21.876;2023-09-07T21:46:35;6.0;;;4.0;;
22675;SDS011;12521;43.310;21.876;2023-09-07T21:51:12;7.0;;;4.0;;
22675;SDS011;12521;43.310;21.876;2023-09-07T21:55:48;7.0;;;4.0;;
22675;SDS011;12521;43.310;21.876;2023-09-07T22:00:25;6.0;;;4.0;;
22675;SDS011;12521;43.310;21.876;2023-09-07T22:05:01;6.0;;;4.0;;
22675;SDS011;12521;43.310;21.876;2023-09-07T22:09:39;6.0;;;5.0;;
22675;SDS011;12521;43.310;21.876;2023-09-07T22:14:15;6.0;;;5.0;;
22675;SDS011;12521;43.310;21.876;2023-09-07T22:18:52;7.0;;;5.0;;
22675;SDS011;12521;43.310;21.876;2023-09-07T22:23:30;7.0;;;5.0;;
22675;SDS011;12521;43.310;21.876;2023-09-07T22:28:07;8.0;;;5.0;;
22675;SDS011;12521;43.310;21.876;2023-09-07T22:32:43;8.0;;;5.0;;
22675;SDS011;12521;43.310;21.876;2023-09-07T22:37:20;8.0;;;5.0;;
22675;SDS011;12521;43.310;21.876;2023-09-07T22:41:57;6.0;;;5.0;;
22675;SDS011;12521;43.310;21.876;2023-09-07T22:46:34;6.0;;;5.0;;
22675;SDS011;12521;43.310;21.876;2023-09-07T22:51:11;5.0;;;5.0;;
22675;SDS011;12521;43.310;21.876;2023-09-07T22:55:49;5.0;;;5.0;;
22675;SDS011;12521;43.310;21.876;2023-09-07T23:00:27;6.0;;;5.0;;
22675;SDS011;12521;43.310;21.876;2023-09-07T23:05:06;6.0;;;5.0;;
22675;SDS011;12521;43.310;21.876;2023-09-07T23:09:44;6.0;;;5.0;;
22675;SDS011;12521;43.310;21.876;2023-09-07T23:14:20;6.0;;;5.0;;
22675;SDS011;12521;43.310;21.876;2023-09-07T23:18:57;6.0;;;5.0;;
22675;SDS011;12521;43.310;21.876;2023-09-07T23:23:33;6.0;;;5.0;;
22675;SDS011;12521;43.310;21.876;2023-09-07T23:28:10;6.0;;;5.0;;
22675;SDS011;12521;43.310;21.876;2023-09-07T23:32:47;6.0;;;5.0;;
22675;SDS011;12521;43.310;21.876;2023-09-07T23:37:24;6.0;;;5.0;;
22675;SDS011;12521;43.310;21.876;2023-09-07T23:42:00;6.0;;;4.0;;
22675;SDS011;12521;43.310;21.876;2023-09-07T23:46:38;6.0;;;4.0;;
22675;SDS011;12521;43.310;21.876;2023-09-07T23:51:14;6.0;;;4.0;;
22675;SDS011;12521;43.310;21.876;2023-09-07T23:55:51;6.0;;;4.0;;
